Time;durP1;ratioP1;P1;durP2;ratioP2;P2;SDS_P1;SDS_P2;PMS_P1;PMS_P2;Temp;Humidity;BMP_temperature;BMP_pressure;BME280_temperature;BME280_humidity;BME280_pressure;Samples;Min_cycle;Max_cycle;Signal;HPM_P1;HPM_P2
2023/09/21 00:00:22;;;;;;;244.57;100.50;;;;;;;;;;4990527;28;20418;-46
2023/09/21 00:02:49;;;;;;;241.77;99.80;;;;;;;;;;4992547;28;20507;-47
2023/09/21 00:05:23;;;;;;;243.47;99.30;;;;;;;;;;4991458;28;20416;-46
2023/09/21 00:07:49;;;;;;;240.80;98.10;;;;;;;;;;4992911;28;20491;-46
2023/09/21 00:10:15;;;;;;;240.77;97.43;;;;;;;;;;4992798;28;20407;-47
2023/09/21 00:12:41;;;;;;;243.07;99.63;;;;;;;;;;4991470;28;20466;-46
2023/09/21 00:15:17;;;;;;;244.23;101.70;;;;;;;;;;4990533;28;20503;-46
2023/09/21 00:17:47;;;;;;;244.40;102.83;;;;;;;;;;4982194;28;20841;-46
2023/09/21 00:20:23;;;;;;;240.40;95.53;;;;;;;;;;4987102;28;20828;-46
2023/09/21 00:22:49;;;;;;;239.57;97.07;;;;;;;;;;4988040;28;20435;-48
2023/09/21 00:25:17;;;;;;;244.87;101.83;;;;;;;;;;4990036;28;20642;-46
2023/09/21 00:27:44;;;;;;;239.73;96.10;;;;;;;;;;4992549;28;20408;-46
2023/09/21 00:30:10;;;;;;;238.23;92.90;;;;;;;;;;4992243;28;20446;-47
2023/09/21 00:32:40;;;;;;;244.00;101.40;;;;;;;;;;4988533;28;20547;-46
2023/09/21 00:35:09;;;;;;;243.03;100.00;;;;;;;;;;4992431;28;20499;-46
2023/09/21 00:37:36;;;;;;;238.13;94.03;;;;;;;;;;4984564;28;20807;-45
2023/09/21 00:40:13;;;;;;;241.03;98.40;;;;;;;;;;4992320;28;20412;-46
2023/09/21 00:42:39;;;;;;;245.37;103.93;;;;;;;;;;4984738;28;20439;-46
2023/09/21 00:45:08;;;;;;;241.60;99.50;;;;;;;;;;4992281;28;21040;-46
2023/09/21 00:47:34;;;;;;;242.57;99.63;;;;;;;;;;4984463;28;20412;-46
2023/09/21 00:50:06;;;;;;;244.60;104.37;;;;;;;;;;4992284;28;20546;-45
2023/09/21 00:52:32;;;;;;;240.83;96.27;;;;;;;;;;4988613;28;20479;-47
2023/09/21 00:54:58;;;;;;;241.47;99.23;;;;;;;;;;4987241;28;20412;-46
2023/09/21 00:57:24;;;;;;;243.67;102.33;;;;;;;;;;4992226;28;20495;-46
2023/09/21 00:59:50;;;;;;;239.27;94.97;;;;;;;;;;4992019;28;20421;-45
2023/09/21 01:02:16;;;;;;;242.77;100.23;;;;;;;;;;4990866;28;21081;-47
2023/09/21 01:04:42;;;;;;;246.80;102.73;;;;;;;;;;4991523;28;20421;-46
2023/09/21 01:07:17;;;;;;;248.70;108.23;;;;;;;;;;4991656;28;20430;-46
2023/09/21 01:09:43;;;;;;;242.63;102.97;;;;;;;;;;4984531;28;20496;-46
2023/09/21 01:12:10;;;;;;;241.97;100.40;;;;;;;;;;4989165;28;20891;-46
2023/09/21 01:14:37;;;;;;;242.60;100.20;;;;;;;;;;4992442;28;20407;-46
2023/09/21 01:17:03;;;;;;;244.00;101.63;;;;;;;;;;4992215;28;20412;-45
2023/09/21 01:19:29;;;;;;;243.87;100.27;;;;;;;;;;4991818;28;20444;-46
2023/09/21 01:21:56;;;;;;;240.37;97.00;;;;;;;;;;4991654;28;20450;-47
2023/09/21 01:24:23;;;;;;;243.47;102.23;;;;;;;;;;4992941;28;20968;-46
2023/09/21 01:26:49;;;;;;;239.07;95.83;;;;;;;;;;4995738;28;20503;-46
2023/09/21 01:29:15;;;;;;;240.70;98.07;;;;;;;;;;4995750;28;20499;-47
2023/09/21 01:31:41;;;;;;;239.60;96.37;;;;;;;;;;4995558;28;20467;-45
2023/09/21 01:34:07;;;;;;;241.27;97.43;;;;;;;;;;4995668;28;20404;-45
2023/09/21 01:36:33;;;;;;;241.77;99.37;;;;;;;;;;4995208;28;20413;-45
2023/09/21 01:38:59;;;;;;;242.47;101.13;;;;;;;;;;4993465;28;20411;-46
2023/09/21 01:41:25;;;;;;;243.47;99.23;;;;;;;;;;4991685;28;20440;-46
2023/09/21 01:43:51;;;;;;;239.27;96.93;;;;;;;;;;4992687;28;20440;-45
2023/09/21 01:46:22;;;;;;;242.93;99.13;;;;;;;;;;4993432;28;20443;-46
2023/09/21 01:48:51;;;;;;;239.67;95.63;;;;;;;;;;4995491;28;20511;-47
2023/09/21 01:51:17;;;;;;;241.97;98.17;;;;;;;;;;4994890;28;20560;-46
2023/09/21 01:53:44;;;;;;;238.30;93.13;;;;;;;;;;4995502;28;20449;-46
2023/09/21 01:56:10;;;;;;;239.50;95.03;;;;;;;;;;4995301;28;20474;-45
2023/09/21 01:58:36;;;;;;;242.30;101.00;;;;;;;;;;4995428;28;20410;-45
2023/09/21 02:01:03;;;;;;;242.57;98.17;;;;;;;;;;4994850;28;20416;-46
2023/09/21 02:03:31;;;;;;;243.37;98.27;;;;;;;;;;4995013;28;20435;-45
2023/09/21 02:05:59;;;;;;;246.37;102.77;;;;;;;;;;4995042;28;20438;-45
2023/09/21 02:08:25;;;;;;;243.23;96.53;;;;;;;;;;4987032;28;20440;-45
2023/09/21 02:10:52;;;;;;;247.67;104.07;;;;;;;;;;4994659;28;20836;-45
2023/09/21 02:13:18;;;;;;;244.03;99.73;;;;;;;;;;4994863;28;20411;-45
2023/09/21 02:15:44;;;;;;;240.67;95.57;;;;;;;;;;4994829;28;20455;-45
2023/09/21 02:18:11;;;;;;;241.20;96.50;;;;;;;;;;4994311;28;20833;-45
2023/09/21 02:20:41;;;;;;;246.70;101.87;;;;;;;;;;4994588;28;20836;-45
2023/09/21 02:23:07;;;;;;;241.43;97.57;;;;;;;;;;4994641;28;20929;-46
2023/09/21 02:25:35;;;;;;;238.73;95.00;;;;;;;;;;4994647;28;20500;-45
2023/09/21 02:28:08;;;;;;;238.03;93.53;;;;;;;;;;4994952;28;20412;-46
2023/09/21 02:30:36;;;;;;;245.37;102.13;;;;;;;;;;4987558;28;20407;-46
2023/09/21 02:33:05;;;;;;;241.97;97.47;;;;;;;;;;4994343;28;20474;-46
2023/09/21 02:35:33;;;;;;;240.60;95.77;;;;;;;;;;4994423;28;20446;-47
2023/09/21 02:37:59;;;;;;;243.37;99.33;;;;;;;;;;4994543;28;20393;-47
2023/09/21 02:40:25;;;;;;;243.10;101.93;;;;;;;;;;4994285;28;20397;-46
2023/09/21 02:42:52;;;;;;;243.87;101.90;;;;;;;;;;4994236;28;21004;-46
2023/09/21 02:45:19;;;;;;;239.70;95.07;;;;;;;;;;4994132;28;20497;-46
2023/09/21 02:47:46;;;;;;;245.43;104.77;;;;;;;;;;4994336;28;20435;-46
2023/09/21 02:50:20;;;;;;;238.67;93.43;;;;;;;;;;4994166;28;20453;-46
2023/09/21 02:52:47;;;;;;;241.30;97.20;;;;;;;;;;4994115;28;20874;-45
2023/09/21 02:55:16;;;;;;;242.30;97.87;;;;;;;;;;4994253;28;20763;-46
2023/09/21 02:57:43;;;;;;;245.10;101.17;;;;;;;;;;4994062;28;20441;-46
2023/09/21 03:00:29;;;;;;;240.90;97.73;;;;;;;;;;4993976;28;20859;-48
2023/09/21 03:02:56;;;;;;;240.10;93.87;;;;;;;;;;4988756;28;20506;-46
2023/09/21 03:05:25;;;;;;;244.10;98.27;;;;;;;;;;4993914;28;20758;-47
2023/09/21 03:07:51;;;;;;;242.43;96.63;;;;;;;;;;4994374;28;20412;-48
2023/09/21 03:10:18;;;;;;;244.43;99.77;;;;;;;;;;4993516;28;20412;-46
2023/09/21 03:12:47;;;;;;;243.57;99.20;;;;;;;;;;4993459;28;20583;-46
2023/09/21 03:15:15;;;;;;;242.67;96.97;;;;;;;;;;4993759;28;20421;-46
2023/09/21 03:17:41;;;;;;;247.37;103.10;;;;;;;;;;4993595;28;20427;-46
2023/09/21 03:20:10;;;;;;;243.37;97.30;;;;;;;;;;4990923;28;20409;-46
2023/09/21 03:22:37;;;;;;;244.60;100.63;;;;;;;;;;4993366;28;20446;-47
2023/09/21 03:25:03;;;;;;;248.00;105.70;;;;;;;;;;4993423;28;20415;-46
2023/09/21 03:27:30;;;;;;;241.90;97.57;;;;;;;;;;4993560;28;20419;-47
2023/09/21 03:29:56;;;;;;;241.83;97.20;;;;;;;;;;4993642;28;20472;-47
2023/09/21 03:32:22;;;;;;;243.57;98.97;;;;;;;;;;4992970;28;20463;-47
2023/09/21 03:34:47;;;;;;;241.70;95.87;;;;;;;;;;4993410;28;20407;-46
2023/09/21 03:37:14;;;;;;;244.70;102.03;;;;;;;;;;4993167;28;20414;-47
2023/09/21 03:39:40;;;;;;;242.90;99.43;;;;;;;;;;4993095;28;20412;-46
2023/09/21 03:42:06;;;;;;;242.97;98.27;;;;;;;;;;4992989;28;20438;-47
2023/09/21 03:44:32;;;;;;;242.17;97.87;;;;;;;;;;4992557;28;20444;-48
2023/09/21 03:46:58;;;;;;;245.30;102.67;;;;;;;;;;4991864;28;20455;-46
2023/09/21 03:49:24;;;;;;;243.37;101.23;;;;;;;;;;4992166;28;20419;-48
2023/09/21 03:51:50;;;;;;;243.73;100.90;;;;;;;;;;4992060;28;20466;-47
2023/09/21 03:54:16;;;;;;;243.63;99.33;;;;;;;;;;4992075;28;20415;-46
2023/09/21 03:56:44;;;;;;;245.27;101.07;;;;;;;;;;4992154;28;20851;-47
2023/09/21 03:59:11;;;;;;;248.13;104.63;;;;;;;;;;4992113;28;20415;-46
2023/09/21 04:01:37;;;;;;;243.27;99.60;;;;;;;;;;4991897;28;20501;-46
2023/09/21 04:04:17;;;;;;;243.07;98.73;;;;;;;;;;4992649;28;20832;-46
2023/09/21 04:06:43;;;;;;;247.07;102.23;;;;;;;;;;4989454;28;20913;-46
2023/09/21 04:09:09;;;;;;;243.70;99.07;;;;;;;;;;4992102;28;20414;-46
2023/09/21 04:11:35;;;;;;;241.13;97.60;;;;;;;;;;4991788;28;20467;-46
2023/09/21 04:14:03;;;;;;;242.30;100.30;;;;;;;;;;4986500;28;20427;-47
2023/09/21 04:16:29;;;;;;;243.50;100.03;;;;;;;;;;4991671;28;20419;-47
2023/09/21 04:18:55;;;;;;;246.87;105.07;;;;;;;;;;4991809;28;20413;-46
2023/09/21 04:21:23;;;;;;;243.63;99.73;;;;;;;;;;4991479;28;20427;-48
2023/09/21 04:23:49;;;;;;;242.17;101.03;;;;;;;;;;4991388;28;20411;-46
2023/09/21 04:26:15;;;;;;;241.33;97.73;;;;;;;;;;4991788;28;20427;-46
2023/09/21 04:28:41;;;;;;;241.67;97.33;;;;;;;;;;4991653;28;20805;-46
2023/09/21 04:31:09;;;;;;;245.43;102.63;;;;;;;;;;4991444;28;20470;-47
2023/09/21 04:33:35;;;;;;;241.57;98.60;;;;;;;;;;4991723;28;20415;-46
2023/09/21 04:36:01;;;;;;;245.07;102.63;;;;;;;;;;4991528;28;20902;-46
2023/09/21 04:38:27;;;;;;;243.77;100.87;;;;;;;;;;4991468;28;20421;-46
2023/09/21 04:40:53;;;;;;;244.47;100.83;;;;;;;;;;4991406;28;20410;-46
2023/09/21 04:43:20;;;;;;;241.77;100.33;;;;;;;;;;4954828;28;1065287;-47
2023/09/21 04:45:49;;;;;;;241.17;97.63;;;;;;;;;;4993000;28;20474;-47
2023/09/21 04:48:16;;;;;;;239.60;96.87;;;;;;;;;;4992118;28;20582;-47
2023/09/21 04:50:42;;;;;;;242.77;98.70;;;;;;;;;;4992143;28;20454;-46
2023/09/21 04:53:08;;;;;;;241.43;97.17;;;;;;;;;;4984675;28;20514;-46
2023/09/21 04:55:36;;;;;;;244.03;101.67;;;;;;;;;;4992365;28;20405;-47
2023/09/21 04:58:02;;;;;;;242.47;98.73;;;;;;;;;;4992186;28;20410;-46
2023/09/21 05:00:28;;;;;;;243.07;100.13;;;;;;;;;;4994902;28;20411;-47
2023/09/21 05:02:54;;;;;;;243.03;100.43;;;;;;;;;;4995986;28;20431;-48
2023/09/21 05:05:20;;;;;;;243.57;102.97;;;;;;;;;;4996070;28;20496;-46
2023/09/21 05:07:46;;;;;;;244.07;104.30;;;;;;;;;;4996199;28;20505;-46
2023/09/21 05:10:12;;;;;;;244.20;102.33;;;;;;;;;;4996077;28;20408;-46
2023/09/21 05:12:38;;;;;;;244.03;102.77;;;;;;;;;;4995722;28;20482;-47
2023/09/21 05:15:06;;;;;;;243.27;102.93;;;;;;;;;;4996017;28;20414;-46
2023/09/21 05:17:32;;;;;;;242.27;97.97;;;;;;;;;;4995629;28;20406;-46
2023/09/21 05:19:58;;;;;;;244.60;103.47;;;;;;;;;;4995959;28;20399;-47
2023/09/21 05:22:25;;;;;;;241.67;100.20;;;;;;;;;;4995397;28;20445;-46
2023/09/21 05:24:51;;;;;;;243.37;101.70;;;;;;;;;;4995848;28;20422;-46
2023/09/21 05:27:17;;;;;;;243.93;102.23;;;;;;;;;;4995692;28;20415;-48
2023/09/21 05:29:43;;;;;;;247.30;109.00;;;;;;;;;;4995637;28;20407;-47
2023/09/21 05:32:09;;;;;;;245.03;102.50;;;;;;;;;;4995091;28;20478;-45
2023/09/21 05:34:36;;;;;;;241.57;101.53;;;;;;;;;;4995525;28;20411;-47
2023/09/21 05:37:02;;;;;;;240.77;98.03;;;;;;;;;;4995515;28;20452;-46
2023/09/21 05:39:28;;;;;;;245.33;100.90;;;;;;;;;;4994741;28;20411;-46
2023/09/21 05:41:54;;;;;;;243.97;99.53;;;;;;;;;;4995178;28;20434;-46
2023/09/21 05:44:25;;;;;;;245.63;105.23;;;;;;;;;;4995395;28;20431;-47
2023/09/21 05:46:51;;;;;;;243.77;100.87;;;;;;;;;;4995419;28;20410;-46
2023/09/21 05:49:24;;;;;;;243.50;102.40;;;;;;;;;;4995329;28;20404;-46
2023/09/21 05:51:56;;;;;;;242.60;101.23;;;;;;;;;;4995367;28;20466;-47
2023/09/21 05:54:26;;;;;;;246.50;106.77;;;;;;;;;;4995392;28;20403;-46
2023/09/21 05:56:52;;;;;;;245.30;102.97;;;;;;;;;;4995243;28;20402;-46
2023/09/21 05:59:19;;;;;;;248.80;110.80;;;;;;;;;;4995018;28;20426;-46
2023/09/21 06:01:45;;;;;;;244.67;106.27;;;;;;;;;;4989343;28;20435;-47
2023/09/21 06:04:12;;;;;;;241.70;100.80;;;;;;;;;;4995204;28;20419;-47
2023/09/21 06:06:38;;;;;;;243.67;104.17;;;;;;;;;;4993813;28;20772;-47
2023/09/21 06:09:05;;;;;;;243.70;102.10;;;;;;;;;;4995099;28;20426;-48
2023/09/21 06:11:31;;;;;;;242.93;103.07;;;;;;;;;;4994275;28;20471;-47
2023/09/21 06:13:58;;;;;;;239.37;99.50;;;;;;;;;;4995062;28;20411;-47
2023/09/21 06:16:24;;;;;;;245.30;105.20;;;;;;;;;;4994986;28;20929;-46
2023/09/21 06:18:50;;;;;;;240.93;99.27;;;;;;;;;;4994835;28;20491;-48
2023/09/21 06:21:16;;;;;;;247.60;109.50;;;;;;;;;;4991024;28;20935;-47
2023/09/21 06:23:44;;;;;;;242.17;101.93;;;;;;;;;;4994902;28;20463;-46
2023/09/21 06:26:12;;;;;;;245.43;106.63;;;;;;;;;;4994696;28;20409;-47
2023/09/21 06:28:39;;;;;;;242.07;101.70;;;;;;;;;;4993268;28;20711;-46
2023/09/21 06:31:05;;;;;;;242.97;103.93;;;;;;;;;;4994301;28;20418;-46
2023/09/21 06:33:32;;;;;;;244.47;104.73;;;;;;;;;;4993353;28;20404;-46
2023/09/21 06:35:58;;;;;;;246.73;109.37;;;;;;;;;;4994582;28;20407;-47
2023/09/21 06:38:24;;;;;;;246.93;105.93;;;;;;;;;;4994371;28;20404;-46
2023/09/21 06:40:50;;;;;;;251.87;112.63;;;;;;;;;;4994221;28;20979;-46
2023/09/21 06:43:16;;;;;;;246.67;108.37;;;;;;;;;;4994080;28;20416;-47
2023/09/21 06:45:42;;;;;;;245.57;106.97;;;;;;;;;;4994608;28;20406;-47
2023/09/21 06:48:11;;;;;;;250.67;111.90;;;;;;;;;;4994179;28;20458;-46
2023/09/21 06:50:40;;;;;;;249.03;107.80;;;;;;;;;;4989694;28;21031;-47
2023/09/21 06:53:06;;;;;;;252.23;116.20;;;;;;;;;;4992862;28;21029;-46
2023/09/21 06:55:32;;;;;;;251.83;117.17;;;;;;;;;;4993966;28;20415;-46
2023/09/21 06:57:58;;;;;;;254.67;118.80;;;;;;;;;;4994079;28;20405;-48
2023/09/21 07:00:24;;;;;;;251.97;117.47;;;;;;;;;;4993988;28;20490;-46
2023/09/21 07:02:50;;;;;;;251.30;114.33;;;;;;;;;;4993825;28;20428;-47
2023/09/21 07:05:16;;;;;;;250.47;113.33;;;;;;;;;;4993859;28;20404;-46
2023/09/21 07:07:41;;;;;;;247.53;109.20;;;;;;;;;;4994145;28;20503;-47
2023/09/21 07:10:10;;;;;;;255.47;122.67;;;;;;;;;;4993827;28;20825;-47
2023/09/21 07:12:38;;;;;;;251.73;114.40;;;;;;;;;;4993577;28;20469;-47
2023/09/21 07:15:04;;;;;;;251.50;116.43;;;;;;;;;;4993779;28;20833;-46
2023/09/21 07:17:30;;;;;;;254.20;119.00;;;;;;;;;;4990943;28;20436;-46
2023/09/21 07:19:56;;;;;;;253.57;120.23;;;;;;;;;;4993318;28;20420;-46
2023/09/21 07:22:22;;;;;;;254.00;121.30;;;;;;;;;;4992481;28;20443;-46
2023/09/21 07:24:48;;;;;;;254.03;121.97;;;;;;;;;;4993641;28;20472;-46
2023/09/21 07:27:16;;;;;;;255.33;122.33;;;;;;;;;;4993193;28;20411;-48
2023/09/21 07:29:42;;;;;;;251.73;121.63;;;;;;;;;;4993709;28;20411;-47
2023/09/21 07:32:10;;;;;;;252.90;122.77;;;;;;;;;;4990022;28;20485;-46
2023/09/21 07:34:36;;;;;;;251.83;120.50;;;;;;;;;;4981015;28;20836;-47
2023/09/21 07:37:02;;;;;;;251.57;119.50;;;;;;;;;;4993206;28;20739;-48
2023/09/21 07:39:28;;;;;;;254.23;126.50;;;;;;;;;;4993160;28;20411;-48
2023/09/21 07:41:54;;;;;;;254.77;125.67;;;;;;;;;;4993233;28;20423;-46
2023/09/21 07:44:22;;;;;;;256.00;127.83;;;;;;;;;;4985627;28;20436;-47
2023/09/21 07:46:49;;;;;;;259.20;134.30;;;;;;;;;;4993143;28;20408;-48
2023/09/21 07:49:15;;;;;;;256.67;131.40;;;;;;;;;;4993057;28;20415;-48
2023/09/21 07:51:41;;;;;;;254.57;127.77;;;;;;;;;;4992605;28;20964;-47
2023/09/21 07:54:08;;;;;;;256.27;133.03;;;;;;;;;;4993038;28;20420;-46
2023/09/21 07:56:36;;;;;;;251.30;124.80;;;;;;;;;;4985542;28;20443;-46
2023/09/21 07:59:04;;;;;;;252.63;129.03;;;;;;;;;;4993552;28;20396;-47
2023/09/21 08:01:31;;;;;;;255.07;132.90;;;;;;;;;;4992331;28;20807;-47
2023/09/21 08:03:57;;;;;;;258.20;133.47;;;;;;;;;;4991820;28;20416;-48
2023/09/21 08:06:23;;;;;;;255.57;131.47;;;;;;;;;;4990576;28;20418;-47
2023/09/21 08:08:52;;;;;;;255.23;128.17;;;;;;;;;;4992698;28;20861;-48
2023/09/21 08:11:18;;;;;;;257.60;131.27;;;;;;;;;;4983298;28;20468;-47
2023/09/21 08:13:44;;;;;;;255.47;132.83;;;;;;;;;;4992533;28;20503;-48
2023/09/21 08:16:10;;;;;;;256.33;132.07;;;;;;;;;;4992540;28;20479;-47
2023/09/21 08:18:36;;;;;;;254.77;131.53;;;;;;;;;;4992426;28;20408;-47
2023/09/21 08:21:03;;;;;;;256.43;134.90;;;;;;;;;;4992308;28;20783;-47
2023/09/21 08:23:29;;;;;;;255.67;130.83;;;;;;;;;;4992756;28;20407;-48
2023/09/21 08:25:56;;;;;;;256.20;132.17;;;;;;;;;;4992430;28;20777;-48
2023/09/21 08:28:23;;;;;;;263.00;140.70;;;;;;;;;;4991803;28;20419;-47
2023/09/21 08:30:49;;;;;;;261.10;138.20;;;;;;;;;;4986315;28;20423;-47
2023/09/21 08:33:17;;;;;;;254.23;131.73;;;;;;;;;;4990596;28;20983;-48
2023/09/21 08:35:46;;;;;;;252.20;131.10;;;;;;;;;;4992427;28;20439;-47
2023/09/21 08:38:12;;;;;;;255.60;132.37;;;;;;;;;;4990915;28;20490;-49
2023/09/21 08:40:38;;;;;;;253.40;132.33;;;;;;;;;;4992057;28;20880;-48
2023/09/21 08:43:04;;;;;;;256.83;140.47;;;;;;;;;;4992334;28;20794;-48
2023/09/21 08:45:31;;;;;;;251.97;129.23;;;;;;;;;;4992383;28;20430;-47
2023/09/21 08:47:57;;;;;;;257.93;138.80;;;;;;;;;;4992146;28;20411;-47
2023/09/21 08:50:23;;;;;;;257.17;137.83;;;;;;;;;;4992038;28;20816;-49
2023/09/21 08:52:53;;;;;;;254.17;135.77;;;;;;;;;;4991394;28;20467;-47
2023/09/21 08:55:19;;;;;;;257.43;141.43;;;;;;;;;;4989449;28;20438;-47
2023/09/21 08:57:45;;;;;;;257.23;142.83;;;;;;;;;;4990698;28;20400;-47
2023/09/21 09:00:12;;;;;;;258.87;147.33;;;;;;;;;;4989178;28;20749;-47
2023/09/21 09:02:38;;;;;;;253.60;137.27;;;;;;;;;;4985599;28;20440;-45
2023/09/21 09:05:07;;;;;;;254.93;142.37;;;;;;;;;;4984764;28;20779;-48
2023/09/21 09:07:40;;;;;;;258.07;144.50;;;;;;;;;;4992162;28;20546;-47
2023/09/21 09:10:10;;;;;;;257.83;143.50;;;;;;;;;;4991996;28;20800;-47
2023/09/21 09:12:37;;;;;;;258.67;143.30;;;;;;;;;;4984030;28;20463;-47
2023/09/21 09:15:04;;;;;;;254.53;131.23;;;;;;;;;;4991950;28;20404;-45
2023/09/21 09:17:30;;;;;;;258.00;140.87;;;;;;;;;;4991887;28;20547;-44
2023/09/21 09:19:57;;;;;;;256.10;137.87;;;;;;;;;;4991965;28;20411;-46
2023/09/21 09:22:23;;;;;;;253.43;134.67;;;;;;;;;;4991638;28;20438;-45
2023/09/21 09:24:51;;;;;;;255.20;136.57;;;;;;;;;;4991853;28;20416;-47
2023/09/21 09:27:17;;;;;;;253.70;132.03;;;;;;;;;;4991878;28;20424;-47
2023/09/21 09:30:04;;;;;;;258.13;139.60;;;;;;;;;;4991646;28;20431;-47
2023/09/21 09:32:41;;;;;;;253.17;130.17;;;;;;;;;;4991617;28;20467;-47
2023/09/21 09:35:12;;;;;;;257.67;139.60;;;;;;;;;;4990796;28;20820;-47
2023/09/21 09:37:39;;;;;;;257.07;134.70;;;;;;;;;;4985042;28;20416;-47
2023/09/21 09:40:18;;;;;;;255.90;131.10;;;;;;;;;;4987814;28;20935;-45
2023/09/21 09:42:45;;;;;;;255.87;132.50;;;;;;;;;;4990157;28;20458;-46
2023/09/21 09:45:18;;;;;;;256.83;137.90;;;;;;;;;;4992264;28;20432;-46
2023/09/21 09:47:50;;;;;;;257.13;136.90;;;;;;;;;;4988929;28;20496;-47
2023/09/21 09:50:17;;;;;;;254.37;130.27;;;;;;;;;;4994129;28;20415;-46
2023/09/21 09:52:48;;;;;;;257.57;139.53;;;;;;;;;;4992280;28;20467;-45
2023/09/21 09:55:14;;;;;;;255.73;136.50;;;;;;;;;;4990709;28;20415;-47
2023/09/21 09:57:43;;;;;;;251.37;130.73;;;;;;;;;;4989256;28;20503;-46
2023/09/21 10:00:15;;;;;;;253.53;136.60;;;;;;;;;;4995042;28;20969;-48
2023/09/21 10:02:47;;;;;;;252.70;132.33;;;;;;;;;;4993922;28;20437;-46
2023/09/21 10:05:13;;;;;;;255.63;136.63;;;;;;;;;;4994988;28;20507;-47
2023/09/21 10:07:39;;;;;;;252.70;134.00;;;;;;;;;;4995035;28;20409;-46
2023/09/21 10:10:07;;;;;;;257.07;141.07;;;;;;;;;;4994879;28;20419;-46
2023/09/21 10:12:34;;;;;;;257.17;139.73;;;;;;;;;;4986987;28;20904;-48
2023/09/21 10:15:02;;;;;;;254.87;137.10;;;;;;;;;;4989775;28;20912;-46
2023/09/21 10:17:28;;;;;;;262.10;153.13;;;;;;;;;;4983017;28;20736;-47
2023/09/21 10:20:11;;;;;;;257.20;141.13;;;;;;;;;;4983982;28;20420;-46
2023/09/21 10:22:37;;;;;;;255.70;138.73;;;;;;;;;;4994760;28;20455;-47
2023/09/21 10:25:03;;;;;;;255.53;138.03;;;;;;;;;;4994867;28;20416;-46
2023/09/21 10:27:33;;;;;;;259.43;142.90;;;;;;;;;;4994686;28;20848;-45
2023/09/21 10:30:09;;;;;;;256.73;135.57;;;;;;;;;;4993263;28;20415;-48
2023/09/21 10:32:42;;;;;;;257.57;132.37;;;;;;;;;;4974918;28;20467;-47
2023/09/21 10:35:11;;;;;;;256.27;132.87;;;;;;;;;;4993688;28;20419;-46
2023/09/21 10:37:39;;;;;;;253.77;126.27;;;;;;;;;;4981960;28;20415;-45
2023/09/21 10:40:08;;;;;;;255.27;131.67;;;;;;;;;;4994565;28;20416;-46
2023/09/21 10:42:34;;;;;;;257.57;129.03;;;;;;;;;;4993914;28;20447;-46
2023/09/21 10:45:02;;;;;;;256.43;126.73;;;;;;;;;;4994286;28;20900;-45
2023/09/21 10:47:29;;;;;;;253.87;125.73;;;;;;;;;;4989140;28;20912;-46
2023/09/21 10:49:57;;;;;;;254.57;126.50;;;;;;;;;;4977244;28;20487;-46
2023/09/21 10:52:25;;;;;;;255.87;129.33;;;;;;;;;;4993864;28;20550;-47
2023/09/21 10:54:52;;;;;;;252.83;122.93;;;;;;;;;;4994273;28;20423;-46
2023/09/21 10:57:23;;;;;;;254.47;125.03;;;;;;;;;;4976373;28;20412;-47
2023/09/21 10:59:50;;;;;;;255.37;128.53;;;;;;;;;;4989036;28;20423;-46
2023/09/21 11:02:16;;;;;;;253.80;125.00;;;;;;;;;;4993831;28;20440;-46
2023/09/21 11:04:43;;;;;;;254.03;123.90;;;;;;;;;;4994001;28;20419;-46
2023/09/21 11:07:12;;;;;;;252.23;122.87;;;;;;;;;;4993928;28;20477;-47
2023/09/21 11:09:40;;;;;;;254.10;126.63;;;;;;;;;;4993717;28;20480;-46
2023/09/21 11:12:08;;;;;;;252.87;124.50;;;;;;;;;;4994096;28;20460;-46
2023/09/21 11:14:34;;;;;;;252.70;125.77;;;;;;;;;;4994059;28;20404;-45
2023/09/21 11:17:00;;;;;;;249.90;117.00;;;;;;;;;;4993724;28;20824;-46
2023/09/21 11:19:26;;;;;;;250.23;118.10;;;;;;;;;;4993530;28;20454;-46
2023/09/21 11:21:52;;;;;;;250.67;119.30;;;;;;;;;;4981898;28;20479;-46
2023/09/21 11:24:18;;;;;;;254.47;120.87;;;;;;;;;;4982531;28;20779;-46
2023/09/21 11:26:49;;;;;;;252.03;117.53;;;;;;;;;;4993759;28;20418;-47
2023/09/21 11:29:16;;;;;;;250.30;114.87;;;;;;;;;;4993202;28;20409;-46
2023/09/21 11:31:45;;;;;;;253.33;120.70;;;;;;;;;;4985607;28;20462;-46
2023/09/21 11:34:11;;;;;;;248.17;111.27;;;;;;;;;;4993482;28;20402;-47
2023/09/21 11:36:37;;;;;;;252.30;118.10;;;;;;;;;;4975819;28;20407;-46
2023/09/21 11:39:08;;;;;;;249.40;116.37;;;;;;;;;;4988960;28;20498;-47
2023/09/21 11:41:33;;;;;;;251.47;118.20;;;;;;;;;;4993230;28;20446;-48
2023/09/21 11:44:06;;;;;;;249.97;119.30;;;;;;;;;;4993051;28;20435;-47
2023/09/21 11:46:33;;;;;;;253.53;125.47;;;;;;;;;;4988916;28;20430;-46
2023/09/21 11:48:59;;;;;;;251.43;123.40;;;;;;;;;;4988945;28;20423;-46
2023/09/21 11:51:28;;;;;;;253.20;123.73;;;;;;;;;;4990190;28;20459;-47
2023/09/21 11:54:00;;;;;;;249.27;118.73;;;;;;;;;;4987690;28;20495;-47
2023/09/21 11:56:26;;;;;;;256.27;126.10;;;;;;;;;;4992060;28;20518;-47
2023/09/21 11:58:58;;;;;;;256.30;127.17;;;;;;;;;;4991013;28;20982;-46
2023/09/21 12:01:24;;;;;;;253.93;128.40;;;;;;;;;;4991256;28;20427;-47
2023/09/21 12:03:53;;;;;;;252.97;122.43;;;;;;;;;;4992309;28;20522;-46
2023/09/21 12:06:19;;;;;;;253.63;128.37;;;;;;;;;;4991904;28;20450;-46
2023/09/21 12:08:45;;;;;;;253.27;128.10;;;;;;;;;;4990828;28;20404;-46
2023/09/21 12:11:14;;;;;;;253.87;129.33;;;;;;;;;;4989995;28;20499;-46
2023/09/21 12:13:40;;;;;;;251.03;122.27;;;;;;;;;;4992860;28;20527;-46
2023/09/21 12:16:07;;;;;;;253.43;129.17;;;;;;;;;;4989157;28;20417;-46
2023/09/21 12:18:33;;;;;;;250.67;123.97;;;;;;;;;;4992346;28;20400;-47
2023/09/21 12:21:00;;;;;;;253.00;128.33;;;;;;;;;;4992343;28;20915;-46
2023/09/21 12:23:27;;;;;;;252.50;131.13;;;;;;;;;;4991949;28;20415;-47
2023/09/21 12:25:53;;;;;;;251.67;128.60;;;;;;;;;;4990364;28;20427;-46
2023/09/21 12:28:19;;;;;;;255.07;135.20;;;;;;;;;;4988752;28;20405;-46
2023/09/21 12:30:47;;;;;;;260.57;133.30;;;;;;;;;;4990157;28;20412;-48
2023/09/21 12:33:15;;;;;;;252.97;131.63;;;;;;;;;;4990891;28;20467;-46
2023/09/21 12:35:41;;;;;;;252.13;125.70;;;;;;;;;;4992591;28;20407;-46
2023/09/21 12:38:08;;;;;;;250.87;122.27;;;;;;;;;;4991858;28;20435;-47
2023/09/21 12:40:34;;;;;;;254.40;128.73;;;;;;;;;;4986321;28;20922;-46
2023/09/21 12:43:00;;;;;;;252.80;123.30;;;;;;;;;;4992179;28;20519;-46
2023/09/21 12:45:26;;;;;;;251.43;123.40;;;;;;;;;;4992218;28;20441;-46
2023/09/21 12:47:52;;;;;;;251.20;118.30;;;;;;;;;;4992331;28;20412;-46
2023/09/21 12:50:18;;;;;;;252.50;122.53;;;;;;;;;;4991689;28;20419;-45
2023/09/21 12:52:45;;;;;;;251.57;123.13;;;;;;;;;;4991906;28;20466;-46
2023/09/21 12:55:11;;;;;;;248.60;116.57;;;;;;;;;;4990154;28;20410;-46
2023/09/21 12:57:38;;;;;;;253.50;117.67;;;;;;;;;;4992224;28;20977;-47
2023/09/21 13:00:10;;;;;;;247.70;113.10;;;;;;;;;;4992172;28;20408;-45
2023/09/21 13:02:37;;;;;;;249.50;115.50;;;;;;;;;;4984414;28;20430;-48
2023/09/21 13:05:03;;;;;;;247.20;110.73;;;;;;;;;;4991804;28;20935;-46
2023/09/21 13:07:29;;;;;;;248.10;112.17;;;;;;;;;;4990020;28;20431;-46
2023/09/21 13:09:55;;;;;;;250.30;116.27;;;;;;;;;;4991899;28;20408;-45
2023/09/21 13:12:21;;;;;;;248.17;113.60;;;;;;;;;;4991785;28;20460;-46
2023/09/21 13:14:49;;;;;;;249.40;116.67;;;;;;;;;;4991965;28;20413;-45
2023/09/21 13:17:15;;;;;;;249.87;111.83;;;;;;;;;;4991744;28;20790;-48
2023/09/21 13:19:42;;;;;;;245.57;109.33;;;;;;;;;;4992036;28;20412;-46
2023/09/21 13:22:08;;;;;;;248.17;114.33;;;;;;;;;;4995543;28;20898;-46
2023/09/21 13:24:35;;;;;;;258.60;119.63;;;;;;;;;;4983320;28;20974;-46
2023/09/21 13:27:03;;;;;;;248.97;113.73;;;;;;;;;;4991531;28;20937;-46
2023/09/21 13:29:30;;;;;;;246.77;111.13;;;;;;;;;;4977821;28;20436;-46
2023/09/21 13:31:56;;;;;;;246.50;109.23;;;;;;;;;;4995327;28;20460;-45
2023/09/21 13:34:22;;;;;;;248.17;113.90;;;;;;;;;;4977806;28;20787;-47
2023/09/21 13:36:49;;;;;;;248.43;112.90;;;;;;;;;;4991535;28;20403;-47
2023/09/21 13:39:18;;;;;;;251.17;116.20;;;;;;;;;;4995440;28;20418;-47
2023/09/21 13:41:48;;;;;;;250.80;117.03;;;;;;;;;;4995224;28;20446;-47
2023/09/21 13:44:14;;;;;;;250.67;120.93;;;;;;;;;;4987934;28;20522;-47
2023/09/21 13:46:39;;;;;;;250.37;116.47;;;;;;;;;;4980287;28;20506;-46
2023/09/21 13:49:06;;;;;;;248.90;114.60;;;;;;;;;;4993865;28;20404;-46
2023/09/21 13:51:33;;;;;;;246.03;112.57;;;;;;;;;;4975617;28;20900;-47
2023/09/21 13:53:59;;;;;;;249.80;115.50;;;;;;;;;;4994198;28;20792;-47